Time;durP1;ratioP1;P1;durP2;ratioP2;P2;SDS_P1;SDS_P2;PMS_P1;PMS_P2;Temp;Humidity;BMP_temperature;BMP_pressure;BME280_temperature;BME280_humidity;BME280_pressure;Samples;Min_cycle;Max_cycle;Signal;HPM_P1;HPM_P2
2022/01/15 00:02:23;;;;;;;;;;;0.60;98.70;;;;;;5044302;28;19963;-69
2022/01/15 00:04:49;;;;;;;;;;;0.60;98.70;;;;;;5042725;28;19909;-69
2022/01/15 00:07:14;;;;;;;;;;;0.60;98.60;;;;;;5026634;28;19948;-69
2022/01/15 00:09:42;;;;;;;;;;;0.60;98.70;;;;;;5042609;28;19913;-69
2022/01/15 00:12:09;;;;;;;;;;;0.60;98.60;;;;;;5043196;28;20166;-69
2022/01/15 00:14:39;;;;;;;;;;;0.60;98.70;;;;;;5043879;28;20130;-69
2022/01/15 00:17:07;;;;;;;;;;;0.70;98.70;;;;;;5044138;28;20273;-69
2022/01/15 00:19:43;;;;;;;;;;;0.60;98.60;;;;;;5043258;28;19983;-70
2022/01/15 00:22:10;;;;;;;;;;;0.60;98.60;;;;;;5042649;28;19958;-69
2022/01/15 00:24:36;;;;;;;;;;;0.60;98.70;;;;;;5043888;28;19916;-69
2022/01/15 00:27:02;;;;;;;;;;;0.70;98.60;;;;;;5043838;28;19913;-69
2022/01/15 00:29:30;;;;;;;;;;;0.70;98.50;;;;;;5043890;28;19909;-69
2022/01/15 00:31:56;;;;;;;;;;;0.70;98.40;;;;;;5042783;28;20146;-70
2022/01/15 00:34:21;;;;;;;;;;;0.60;98.50;;;;;;5041237;28;20089;-69
2022/01/15 00:36:47;;;;;;;;;;;0.70;98.50;;;;;;5043456;28;19919;-69
2022/01/15 00:39:13;;;;;;;;;;;0.70;98.50;;;;;;5043681;28;19921;-69
2022/01/15 00:41:38;;;;;;;;;;;0.60;98.50;;;;;;5043634;28;19913;-69
2022/01/15 00:44:05;;;;;;;;;;;0.60;98.60;;;;;;5043509;28;19941;-70
2022/01/15 00:46:30;;;;;;;;;;;0.60;98.70;;;;;;5043354;28;19954;-69
2022/01/15 00:48:56;;;;;;;;;;;0.70;98.70;;;;;;5043462;28;19913;-69
2022/01/15 00:51:22;;;;;;;;;;;0.70;98.60;;;;;;5052015;23;19925;-70
2022/01/15 00:53:48;;;;;;;;;;;0.60;98.50;;;;;;5005854;28;19924;-70
2022/01/15 00:56:14;;;;;;;;;;;0.70;98.60;;;;;;5010751;28;19910;-70
2022/01/15 00:58:40;;;;;;;;;;;0.60;98.60;;;;;;5022759;28;20231;-70
2022/01/15 01:01:06;;;;;;;;;;;0.60;98.70;;;;;;5023630;28;19909;-70
2022/01/15 01:03:31;;;;;;;;;;;0.60;99.00;;;;;;5022668;28;20201;-70
2022/01/15 01:05:57;;;;;;;;;;;0.60;99.00;;;;;;5023155;28;19949;-70
2022/01/15 01:08:23;;;;;;;;;;;0.60;98.90;;;;;;5015360;28;19939;-70
2022/01/15 01:24:13;;;;;;;;;;;0.70;98.90;;;;;;5023165;28;20116;-71
2022/01/15 01:26:47;;;;;;;;;;;0.70;99.00;;;;;;5014022;28;19910;-71
2022/01/15 01:29:31;;;;;;;;;;;0.70;99.10;;;;;;5023326;28;19943;-71
2022/01/15 01:32:09;;;;;;;;;;;0.70;99.10;;;;;;5008217;28;20419;-71
2022/01/15 01:34:38;;;;;;;;;;;0.70;99.10;;;;;;5021280;28;19917;-71
2022/01/15 01:39:52;;;;;;;;;;;0.70;99.10;;;;;;5022122;28;19910;-71
2022/01/15 01:45:08;;;;;;;;;;;0.90;98.80;;;;;;5028388;28;20004;-72
2022/01/15 01:47:40;;;;;;;;;;;0.70;99.10;;;;;;5028712;28;20148;-71
2022/01/15 01:50:09;;;;;;;;;;;0.70;99.20;;;;;;5013117;28;19910;-71
2022/01/15 01:52:35;;;;;;;;;;;0.70;99.20;;;;;;5029458;28;19920;-71
2022/01/15 01:55:01;;;;;;;;;;;0.80;99.30;;;;;;5028179;28;19924;-71
2022/01/15 01:57:26;;;;;;;;;;;0.80;99.30;;;;;;5012190;28;19914;-71
2022/01/15 01:59:52;;;;;;;;;;;0.80;99.30;;;;;;5029498;28;19909;-71
2022/01/15 02:02:17;;;;;;;;;;;0.80;99.30;;;;;;5021285;28;20232;-70
2022/01/15 02:04:43;;;;;;;;;;;0.80;99.20;;;;;;5027962;28;19910;-70
2022/01/15 02:07:09;;;;;;;;;;;0.80;99.20;;;;;;5027677;28;19910;-70
2022/01/15 02:09:35;;;;;;;;;;;0.90;99.20;;;;;;5029580;28;19935;-70
2022/01/15 02:12:00;;;;;;;;;;;0.90;99.30;;;;;;5027230;28;20199;-72
2022/01/15 02:14:27;;;;;;;;;;;0.90;99.40;;;;;;5011950;28;20081;-72
2022/01/15 02:16:53;;;;;;;;;;;0.90;99.40;;;;;;5028399;28;20154;-71
2022/01/15 02:19:19;;;;;;;;;;;0.90;99.30;;;;;;5029452;28;19918;-71
2022/01/15 02:24:13;;;;;;;;;;;0.80;99.40;;;;;;5028648;28;19913;-71
2022/01/15 02:26:39;;;;;;;;;;;0.80;99.40;;;;;;5029207;28;20201;-72
2022/01/15 02:29:06;;;;;;;;;;;0.90;99.40;;;;;;5028319;28;20112;-74
2022/01/15 02:31:32;;;;;;;;;;;1.00;99.20;;;;;;4995682;28;19984;-73
2022/01/15 02:33:58;;;;;;;;;;;0.90;99.30;;;;;;5023653;28;19909;-71
2022/01/15 02:36:26;;;;;;;;;;;1.00;99.40;;;;;;5008962;28;19909;-71
2022/01/15 02:38:51;;;;;;;;;;;1.10;99.10;;;;;;5007800;28;20205;-71
2022/01/15 02:41:38;;;;;;;;;;;1.00;98.90;;;;;;5009549;28;19917;-71
2022/01/15 02:44:05;;;;;;;;;;;1.00;99.10;;;;;;5008318;28;19910;-71
2022/01/15 02:49:05;;;;;;;;;;;0.90;99.10;;;;;;5024980;28;19910;-71
2022/01/15 02:51:35;;;;;;;;;;;0.90;99.20;;;;;;5009202;28;19960;-71
2022/01/15 02:54:02;;;;;;;;;;;0.90;99.30;;;;;;5005866;28;19949;-71
2022/01/15 02:56:38;;;;;;;;;;;0.90;99.40;;;;;;5006083;28;19949;-71
2022/01/15 02:59:06;;;;;;;;;;;0.90;99.40;;;;;;5021496;28;19914;-71
2022/01/15 03:01:32;;;;;;;;;;;0.90;99.30;;;;;;5008036;28;19941;-71
2022/01/15 03:03:58;;;;;;;;;;;0.90;99.30;;;;;;5008519;28;19932;-71
2022/01/15 03:06:24;;;;;;;;;;;0.90;99.30;;;;;;5024524;28;19910;-70
2022/01/15 03:08:50;;;;;;;;;;;0.90;99.50;;;;;;5024897;28;19910;-71
2022/01/15 03:11:16;;;;;;;;;;;0.90;99.30;;;;;;5020423;28;19913;-71
2022/01/15 03:13:42;;;;;;;;;;;0.90;99.30;;;;;;5021390;28;19953;-71
2022/01/15 03:16:09;;;;;;;;;;;0.90;99.30;;;;;;5020306;28;19917;-71
2022/01/15 03:18:35;;;;;;;;;;;0.90;99.30;;;;;;5005692;28;19960;-72
2022/01/15 03:21:01;;;;;;;;;;;0.80;99.40;;;;;;5021145;28;19932;-72
2022/01/15 03:23:26;;;;;;;;;;;0.80;99.60;;;;;;5007765;28;19929;-71
2022/01/15 03:25:52;;;;;;;;;;;0.80;99.70;;;;;;5025267;28;20201;-73
2022/01/15 03:28:18;;;;;;;;;;;0.80;99.60;;;;;;5025061;28;19913;-72
2022/01/15 03:30:43;;;;;;;;;;;0.80;99.50;;;;;;5024266;28;19914;-71
2022/01/15 03:33:09;;;;;;;;;;;0.90;99.50;;;;;;5025396;28;20129;-72
2022/01/15 03:35:35;;;;;;;;;;;0.90;99.50;;;;;;5019227;28;20251;-72
2022/01/15 03:38:01;;;;;;;;;;;0.90;99.30;;;;;;5004576;28;19913;-72
2022/01/15 03:40:27;;;;;;;;;;;1.00;99.20;;;;;;4996568;28;19910;-72
2022/01/15 03:42:53;;;;;;;;;;;0.90;99.20;;;;;;5005575;28;19910;-73
2022/01/15 03:45:18;;;;;;;;;;;0.90;99.20;;;;;;5019535;28;19917;-73
2022/01/15 03:47:46;;;;;;;;;;;0.90;99.20;;;;;;5005507;28;19910;-73
2022/01/15 03:50:13;;;;;;;;;;;0.80;99.30;;;;;;5019824;28;19947;-73
2022/01/15 03:52:38;;;;;;;;;;;1.00;99.10;;;;;;5004066;28;19921;-72
2022/01/15 03:55:06;;;;;;;;;;;0.90;99.10;;;;;;5008858;28;19910;-73
2022/01/15 03:57:32;;;;;;;;;;;0.90;99.30;;;;;;5007169;28;19917;-72
2022/01/15 03:59:59;;;;;;;;;;;0.80;99.50;;;;;;5023868;28;20251;-72
2022/01/15 04:02:24;;;;;;;;;;;0.90;99.40;;;;;;5023812;28;19910;-72
2022/01/15 04:04:50;;;;;;;;;;;0.90;99.40;;;;;;5024323;28;19920;-73
2022/01/15 04:07:15;;;;;;;;;;;0.90;99.40;;;;;;5019597;28;19910;-72
2022/01/15 04:09:41;;;;;;;;;;;0.90;99.40;;;;;;5004815;28;19917;-72
2022/01/15 04:12:07;;;;;;;;;;;1.00;99.30;;;;;;5004821;28;19968;-72
2022/01/15 04:14:33;;;;;;;;;;;0.90;99.40;;;;;;5028482;28;20294;-72
2022/01/15 04:16:59;;;;;;;;;;;0.90;99.30;;;;;;5024482;28;19951;-72
2022/01/15 04:19:25;;;;;;;;;;;1.00;99.30;;;;;;5023830;28;20279;-69
2022/01/15 04:21:51;;;;;;;;;;;1.00;99.20;;;;;;5022973;28;19987;-69
2022/01/15 04:24:17;;;;;;;;;;;1.00;99.20;;;;;;5023483;28;19914;-71
2022/01/15 04:26:43;;;;;;;;;;;0.90;99.20;;;;;;5024443;28;20282;-71
2022/01/15 04:29:09;;;;;;;;;;;1.00;99.20;;;;;;5023238;28;19917;-72
2022/01/15 04:31:48;;;;;;;;;;;1.00;99.20;;;;;;5023165;28;19945;-71
2022/01/15 04:34:21;;;;;;;;;;;1.00;99.10;;;;;;5023898;28;20108;-71
2022/01/15 04:36:48;;;;;;;;;;;1.00;99.10;;;;;;5019158;28;19941;-72
2022/01/15 04:39:13;;;;;;;;;;;1.10;99.10;;;;;;5019323;28;19914;-72
2022/01/15 04:41:39;;;;;;;;;;;1.10;99.10;;;;;;5021847;28;19916;-72
2022/01/15 04:44:05;;;;;;;;;;;1.10;99.10;;;;;;5024062;28;19916;-71
2022/01/15 04:46:35;;;;;;;;;;;1.00;99.10;;;;;;5005660;28;19910;-71
2022/01/15 04:49:00;;;;;;;;;;;1.00;99.30;;;;;;5022805;28;20196;-72
2022/01/15 04:51:26;;;;;;;;;;;1.00;99.20;;;;;;5023019;28;19921;-72
2022/01/15 04:53:52;;;;;;;;;;;1.00;99.10;;;;;;5023881;28;19909;-71
2022/01/15 04:56:17;;;;;;;;;;;1.00;99.20;;;;;;5018202;28;19917;-71
2022/01/15 04:58:43;;;;;;;;;;;1.10;99.20;;;;;;5004096;28;19949;-71
2022/01/15 05:01:09;;;;;;;;;;;1.00;99.20;;;;;;5019311;28;20032;-72
2022/01/15 05:03:34;;;;;;;;;;;0.90;99.40;;;;;;5018264;28;19976;-71
2022/01/15 05:06:00;;;;;;;;;;;1.00;99.50;;;;;;5023445;28;20200;-71
2022/01/15 05:08:26;;;;;;;;;;;1.00;99.50;;;;;;5022926;28;19929;-71
2022/01/15 05:10:54;;;;;;;;;;;1.00;99.40;;;;;;5022698;28;19909;-71
2022/01/15 05:13:26;;;;;;;;;;;1.00;99.50;;;;;;5022515;28;19976;-71
2022/01/15 05:15:51;;;;;;;;;;;1.10;99.40;;;;;;5022019;28;19916;-71
2022/01/15 05:18:18;;;;;;;;;;;1.10;99.40;;;;;;5023112;28;19914;-71
2022/01/15 05:20:45;;;;;;;;;;;1.10;99.40;;;;;;5022478;28;20209;-71
2022/01/15 05:23:11;;;;;;;;;;;1.10;99.40;;;;;;5023294;28;19916;-71
2022/01/15 05:25:36;;;;;;;;;;;1.10;99.30;;;;;;5022880;28;19941;-71
2022/01/15 05:28:03;;;;;;;;;;;1.10;99.30;;;;;;5022347;28;19909;-71
2022/01/15 05:30:30;;;;;;;;;;;1.20;99.30;;;;;;5023237;28;20222;-71
2022/01/15 05:32:56;;;;;;;;;;;1.20;99.20;;;;;;5022182;28;19925;-71
2022/01/15 05:35:26;;;;;;;;;;;1.10;99.30;;;;;;5021374;28;19909;-70
2022/01/15 05:37:58;;;;;;;;;;;1.10;99.30;;;;;;5022198;28;19913;-71
2022/01/15 05:40:24;;;;;;;;;;;1.10;99.20;;;;;;5022829;28;19917;-70
2022/01/15 05:42:50;;;;;;;;;;;1.10;99.20;;;;;;5023250;28;19947;-70
2022/01/15 05:45:15;;;;;;;;;;;1.10;99.20;;;;;;5021758;28;19976;-70
2022/01/15 05:47:41;;;;;;;;;;;1.10;99.20;;;;;;5022184;28;19973;-70
2022/01/15 05:50:07;;;;;;;;;;;1.20;99.00;;;;;;5021920;28;19975;-70
2022/01/15 05:52:33;;;;;;;;;;;1.20;99.00;;;;;;5020664;28;19951;-70
2022/01/15 05:54:59;;;;;;;;;;;1.20;98.90;;;;;;5021264;28;19917;-71
2022/01/15 05:57:24;;;;;;;;;;;1.20;98.90;;;;;;5019141;28;19944;-70
2022/01/15 05:59:53;;;;;;;;;;;1.20;99.00;;;;;;4985383;28;19910;-70
2022/01/15 06:02:19;;;;;;;;;;;1.20;99.00;;;;;;5001751;28;19910;-70
2022/01/15 06:04:45;;;;;;;;;;;1.10;99.00;;;;;;5002048;28;19910;-70
2022/01/15 06:07:11;;;;;;;;;;;1.10;99.10;;;;;;5001043;28;20077;-71
2022/01/15 06:09:36;;;;;;;;;;;1.10;99.20;;;;;;5012914;28;19944;-70
2022/01/15 06:12:02;;;;;;;;;;;1.20;99.20;;;;;;5020438;28;19910;-71
2022/01/15 06:14:30;;;;;;;;;;;1.20;99.20;;;;;;5020407;28;19910;-70
2022/01/15 06:16:55;;;;;;;;;;;1.20;99.20;;;;;;5003903;28;19951;-71
2022/01/15 06:19:21;;;;;;;;;;;1.20;99.10;;;;;;5020710;28;19914;-70
2022/01/15 06:21:47;;;;;;;;;;;1.20;99.10;;;;;;5021788;28;20166;-70
2022/01/15 06:24:12;;;;;;;;;;;1.20;99.10;;;;;;5020365;28;19989;-70
2022/01/15 06:26:38;;;;;;;;;;;1.20;99.00;;;;;;5021945;28;19910;-70
2022/01/15 06:29:04;;;;;;;;;;;1.20;99.10;;;;;;5022582;28;19933;-72
2022/01/15 06:31:31;;;;;;;;;;;1.20;99.20;;;;;;5024188;28;19909;-71
2022/01/15 06:33:58;;;;;;;;;;;1.20;99.20;;;;;;5025328;28;20247;-71
2022/01/15 06:36:23;;;;;;;;;;;1.20;99.20;;;;;;5025028;28;19980;-71
2022/01/15 06:38:49;;;;;;;;;;;1.30;98.90;;;;;;5025286;28;19928;-71
2022/01/15 06:41:15;;;;;;;;;;;1.20;98.90;;;;;;5024333;28;20074;-71
2022/01/15 06:43:41;;;;;;;;;;;1.20;99.00;;;;;;5023932;28;19949;-71
2022/01/15 06:46:06;;;;;;;;;;;1.30;99.00;;;;;;5023634;28;19910;-71
2022/01/15 06:48:32;;;;;;;;;;;1.20;99.00;;;;;;5023910;28;19984;-71
2022/01/15 06:50:58;;;;;;;;;;;1.20;99.00;;;;;;5023312;28;19909;-72
2022/01/15 06:53:23;;;;;;;;;;;1.20;99.10;;;;;;5024907;28;19913;-73
2022/01/15 06:55:52;;;;;;;;;;;1.30;99.10;;;;;;5023170;28;19916;-73
2022/01/15 06:58:22;;;;;;;;;;;1.30;99.00;;;;;;5024810;28;19971;-73
2022/01/15 07:00:49;;;;;;;;;;;1.20;99.00;;;;;;5007898;28;19910;-73
2022/01/15 07:03:14;;;;;;;;;;;1.30;99.00;;;;;;5007279;28;19909;-72
2022/01/15 07:05:40;;;;;;;;;;;1.30;98.90;;;;;;5009715;28;19968;-73
2022/01/15 07:08:06;;;;;;;;;;;1.20;98.70;;;;;;5005223;28;20193;-73
2022/01/15 07:10:32;;;;;;;;;;;1.10;98.90;;;;;;5009780;28;19914;-72
2022/01/15 07:12:57;;;;;;;;;;;1.20;99.00;;;;;;5018034;28;19984;-72
2022/01/15 07:15:23;;;;;;;;;;;1.20;99.00;;;;;;5024011;28;19963;-71
2022/01/15 07:17:49;;;;;;;;;;;1.30;99.00;;;;;;5023272;28;20016;-72
2022/01/15 07:20:17;;;;;;;;;;;1.30;99.10;;;;;;5023366;28;20089;-72
2022/01/15 07:22:43;;;;;;;;;;;1.30;99.10;;;;;;5020670;28;19916;-71
2022/01/15 07:25:09;;;;;;;;;;;1.30;99.10;;;;;;5022889;28;20212;-71
2022/01/15 07:27:36;;;;;;;;;;;1.30;99.10;;;;;;5022613;28;19919;-72
2022/01/15 07:30:06;;;;;;;;;;;1.30;99.20;;;;;;5023038;28;19913;-72
2022/01/15 07:32:31;;;;;;;;;;;1.40;99.10;;;;;;5018405;28;19909;-71
2022/01/15 07:34:57;;;;;;;;;;;1.30;99.00;;;;;;5004054;28;19956;-71
2022/01/15 07:37:23;;;;;;;;;;;1.40;99.10;;;;;;5021114;28;19925;-70
2022/01/15 07:39:49;;;;;;;;;;;1.40;99.10;;;;;;5020410;28;19910;-71
2022/01/15 07:42:14;;;;;;;;;;;1.40;99.00;;;;;;5019308;28;19917;-70
2022/01/15 07:44:40;;;;;;;;;;;1.40;98.90;;;;;;5019224;28;19909;-70
2022/01/15 07:47:06;;;;;;;;;;;1.40;99.10;;;;;;5004198;28;19937;-70
2022/01/15 07:49:32;;;;;;;;;;;1.40;99.00;;;;;;5016877;28;19916;-71
2022/01/15 07:51:59;;;;;;;;;;;1.40;99.30;;;;;;5023724;28;19917;-71
2022/01/15 07:54:24;;;;;;;;;;;1.50;99.00;;;;;;5022365;28;19909;-72
2022/01/15 07:56:54;;;;;;;;;;;1.50;99.00;;;;;;5023556;28;20004;-72
2022/01/15 07:59:24;;;;;;;;;;;1.50;99.00;;;;;;5022335;28;19953;-71
2022/01/15 08:01:49;;;;;;;;;;;1.60;98.80;;;;;;5023631;28;19914;-71
2022/01/15 08:04:15;;;;;;;;;;;1.60;98.60;;;;;;5023102;28;19995;-71
2022/01/15 08:06:41;;;;;;;;;;;1.60;98.70;;;;;;5022664;28;20011;-72
2022/01/15 08:09:07;;;;;;;;;;;1.60;98.60;;;;;;5023474;28;19918;-71
2022/01/15 08:11:33;;;;;;;;;;;1.70;98.60;;;;;;5005868;28;19939;-72
2022/01/15 08:13:58;;;;;;;;;;;1.80;98.50;;;;;;5017780;28;20208;-71
2022/01/15 08:16:24;;;;;;;;;;;1.80;98.50;;;;;;5003457;28;19914;-72
2022/01/15 08:18:50;;;;;;;;;;;1.80;98.30;;;;;;5014183;28;19925;-72
2022/01/15 08:21:16;;;;;;;;;;;1.80;98.30;;;;;;5022905;28;20078;-71
2022/01/15 08:23:41;;;;;;;;;;;1.80;98.20;;;;;;5023195;28;20189;-71
2022/01/15 08:26:07;;;;;;;;;;;1.90;98.20;;;;;;5022177;28;19910;-71
2022/01/15 08:28:33;;;;;;;;;;;1.90;98.20;;;;;;5023046;28;19992;-72
2022/01/15 08:30:58;;;;;;;;;;;2.00;98.20;;;;;;5022986;28;19924;-72
2022/01/15 08:33:24;;;;;;;;;;;2.10;97.90;;;;;;5022200;28;19909;-72
2022/01/15 08:35:50;;;;;;;;;;;2.00;98.00;;;;;;5022740;28;19909;-72
2022/01/15 08:38:15;;;;;;;;;;;2.10;97.80;;;;;;5022950;28;19913;-72
2022/01/15 08:40:42;;;;;;;;;;;2.00;97.80;;;;;;5022870;28;19916;-72
2022/01/15 08:43:07;;;;;;;;;;;2.10;98.00;;;;;;5022573;28;19909;-72
2022/01/15 08:45:35;;;;;;;;;;;2.20;97.60;;;;;;5001995;28;19980;-72
2022/01/15 08:48:00;;;;;;;;;;;2.20;97.80;;;;;;5011740;28;19984;-72
2022/01/15 08:50:26;;;;;;;;;;;2.30;97.50;;;;;;5022569;28;20223;-72
2022/01/15 08:52:52;;;;;;;;;;;2.20;97.60;;;;;;5018805;28;19914;-71
2022/01/15 08:55:17;;;;;;;;;;;2.20;97.60;;;;;;5021899;28;20031;-70
2022/01/15 08:57:44;;;;;;;;;;;2.20;97.60;;;;;;5020290;28;20185;-70
2022/01/15 09:00:13;;;;;;;;;;;2.20;97.80;;;;;;5011007;28;19942;-70
2022/01/15 09:02:39;;;;;;;;;;;2.30;97.70;;;;;;5009374;28;20185;-68
2022/01/15 09:05:05;;;;;;;;;;;2.30;97.70;;;;;;5009031;28;19910;-69
2022/01/15 09:07:31;;;;;;;;;;;2.40;97.80;;;;;;5012757;28;19916;-70
2022/01/15 09:09:57;;;;;;;;;;;2.40;97.70;;;;;;5009487;28;20028;-69
2022/01/15 09:12:22;;;;;;;;;;;2.40;97.70;;;;;;5013062;28;19920;-70
2022/01/15 09:14:49;;;;;;;;;;;2.50;97.50;;;;;;5016589;28;19917;-70
2022/01/15 09:17:15;;;;;;;;;;;2.60;97.50;;;;;;5009026;28;19952;-70
2022/01/15 09:19:41;;;;;;;;;;;2.60;97.30;;;;;;5012188;28;19909;-69
2022/01/15 09:22:11;;;;;;;;;;;2.50;97.20;;;;;;5016309;28;19918;-69
2022/01/15 09:24:37;;;;;;;;;;;2.60;97.30;;;;;;5009976;28;19918;-69
2022/01/15 09:30:12;;;;;;;;;;;2.70;97.30;;;;;;5010820;28;19924;-70
2022/01/15 09:32:53;;;;;;;;;;;2.70;97.00;;;;;;4972898;28;19910;-70
2022/01/15 09:35:28;;;;;;;;;;;2.80;97.00;;;;;;4971242;28;19945;-69
2022/01/15 09:37:54;;;;;;;;;;;2.80;97.10;;;;;;4981759;28;19913;-68
2022/01/15 09:40:21;;;;;;;;;;;2.90;96.90;;;;;;4984805;28;19937;-69
2022/01/15 09:42:48;;;;;;;;;;;2.90;97.00;;;;;;5001146;28;19921;-69
2022/01/15 09:45:14;;;;;;;;;;;3.10;96.80;;;;;;5020059;28;19960;-69
2022/01/15 09:47:40;;;;;;;;;;;2.90;96.80;;;;;;5018145;28;19921;-69
2022/01/15 09:50:08;;;;;;;;;;;3.10;96.50;;;;;;5010668;28;19918;-69
2022/01/15 09:52:34;;;;;;;;;;;3.10;96.30;;;;;;5008459;28;19913;-70
2022/01/15 09:55:01;;;;;;;;;;;3.10;96.30;;;;;;5010203;28;19915;-70
2022/01/15 09:57:26;;;;;;;;;;;3.10;96.50;;;;;;4993673;28;19914;-70
2022/01/15 09:59:53;;;;;;;;;;;3.30;96.30;;;;;;5009131;28;20362;-71
2022/01/15 10:02:18;;;;;;;;;;;3.40;95.90;;;;;;5011369;28;19933;-70
2022/01/15 10:04:44;;;;;;;;;;;3.40;96.10;;;;;;5003807;28;19989;-71
2022/01/15 10:07:17;;;;;;;;;;;3.30;96.20;;;;;;5011530;28;19917;-71
2022/01/15 10:09:44;;;;;;;;;;;3.50;95.80;;;;;;5008229;28;20000;-70
2022/01/15 10:12:10;;;;;;;;;;;3.70;95.20;;;;;;5007696;28;19915;-70
2022/01/15 10:14:40;;;;;;;;;;;3.70;95.20;;;;;;5021996;28;19929;-70
2022/01/15 10:17:29;;;;;;;;;;;3.80;95.20;;;;;;5025127;28;20117;-70
2022/01/15 10:19:58;;;;;;;;;;;3.80;95.20;;;;;;5025353;28;20032;-70
2022/01/15 10:22:25;;;;;;;;;;;3.90;94.90;;;;;;5024833;28;19916;-70
2022/01/15 10:24:57;;;;;;;;;;;4.00;94.90;;;;;;5022501;28;19914;-70
2022/01/15 10:27:34;;;;;;;;;;;4.00;95.10;;;;;;5024995;28;19944;-70
2022/01/15 10:30:21;;;;;;;;;;;4.00;95.00;;;;;;5024948;28;19909;-70
2022/01/15 10:33:07;;;;;;;;;;;4.10;94.60;;;;;;5024348;28;20131;-70
2022/01/15 10:35:37;;;;;;;;;;;4.20;94.40;;;;;;5019328;28;19913;-70
2022/01/15 10:38:06;;;;;;;;;;;4.20;94.10;;;;;;5004694;28;19936;-70
2022/01/15 10:40:53;;;;;;;;;;;4.30;93.70;;;;;;5019755;28;19921;-70
2022/01/15 10:43:19;;;;;;;;;;;4.20;94.00;;;;;;5020225;28;20109;-70
2022/01/15 10:45:56;;;;;;;;;;;4.20;94.10;;;;;;5019023;28;19952;-70
2022/01/15 10:48:32;;;;;;;;;;;4.30;93.80;;;;;;5020628;28;19996;-70
2022/01/15 10:51:03;;;;;;;;;;;4.20;93.70;;;;;;5003637;28;19921;-70
2022/01/15 10:53:37;;;;;;;;;;;4.00;94.20;;;;;;5023203;28;19917;-70
2022/01/15 10:56:05;;;;;;;;;;;4.10;94.00;;;;;;5023449;28;19909;-66
2022/01/15 10:58:30;;;;;;;;;;;4.10;94.20;;;;;;5023928;28;19941;-67
2022/01/15 11:00:56;;;;;;;;;;;4.10;94.20;;;;;;5023482;28;20169;-67
2022/01/15 11:03:22;;;;;;;;;;;4.40;94.00;;;;;;5024610;28;19909;-67
2022/01/15 11:05:49;;;;;;;;;;;4.50;93.50;;;;;;5023330;28;19978;-67
2022/01/15 11:08:26;;;;;;;;;;;4.60;93.10;;;;;;5024827;28;19910;-67
2022/01/15 11:11:00;;;;;;;;;;;4.70;92.90;;;;;;5023657;28;19920;-67
2022/01/15 11:13:30;;;;;;;;;;;4.80;93.00;;;;;;5023557;28;20474;-68
2022/01/15 11:15:57;;;;;;;;;;;4.90;92.90;;;;;;5021041;28;19945;-67
2022/01/15 11:18:25;;;;;;;;;;;5.00;92.20;;;;;;5024289;28;20042;-67
2022/01/15 11:20:52;;;;;;;;;;;5.00;92.10;;;;;;5024426;28;19984;-67
2022/01/15 11:23:22;;;;;;;;;;;5.00;92.10;;;;;;5023833;28;19931;-67
2022/01/15 11:25:48;;;;;;;;;;;5.00;92.20;;;;;;5023247;28;19993;-67
2022/01/15 11:28:15;;;;;;;;;;;5.10;92.30;;;;;;5024187;28;20200;-68
2022/01/15 11:30:41;;;;;;;;;;;5.00;92.10;;;;;;5022645;28;19941;-67
2022/01/15 11:33:06;;;;;;;;;;;5.10;92.10;;;;;;5005469;28;19914;-67
2022/01/15 11:35:44;;;;;;;;;;;5.30;91.50;;;;;;5004900;28;19914;-68
2022/01/15 11:38:10;;;;;;;;;;;5.20;91.60;;;;;;5023974;28;20139;-68
2022/01/15 11:40:40;;;;;;;;;;;5.20;91.30;;;;;;5023946;28;19910;-67
2022/01/15 11:43:24;;;;;;;;;;;5.30;90.30;;;;;;5023055;28;19916;-67
2022/01/15 11:45:57;;;;;;;;;;;5.30;90.10;;;;;;5022822;28;19909;-67
2022/01/15 11:48:30;;;;;;;;;;;5.30;89.50;;;;;;5022175;28;19916;-67
2022/01/15 11:51:14;;;;;;;;;;;5.20;89.20;;;;;;5018523;28;20252;-67
2022/01/15 11:53:51;;;;;;;;;;;5.20;88.50;;;;;;5003398;28;19914;-67
2022/01/15 11:56:18;;;;;;;;;;;5.10;87.90;;;;;;5002931;28;20108;-67
2022/01/15 11:58:44;;;;;;;;;;;5.10;88.40;;;;;;5003890;28;19985;-67
2022/01/15 12:01:39;;;;;;;;;;;5.00;87.90;;;;;;5011486;28;19932;-68
2022/01/15 12:04:26;;;;;;;;;;;4.90;88.20;;;;;;5023249;28;19960;-67
2022/01/15 12:07:10;;;;;;;;;;;4.80;87.20;;;;;;5022206;28;19909;-67
2022/01/15 12:09:39;;;;;;;;;;;4.80;88.30;;;;;;5023593;28;19993;-68
2022/01/15 12:12:21;;;;;;;;;;;4.80;87.90;;;;;;5012492;28;20148;-68
2022/01/15 12:14:53;;;;;;;;;;;4.80;88.70;;;;;;5003105;28;19918;-68
2022/01/15 12:17:30;;;;;;;;;;;4.80;88.70;;;;;;5018028;28;20109;-68
2022/01/15 12:20:00;;;;;;;;;;;4.60;88.10;;;;;;5015002;28;19980;-69
2022/01/15 12:22:40;;;;;;;;;;;4.60;88.20;;;;;;5021650;28;19916;-69
2022/01/15 12:25:07;;;;;;;;;;;4.60;88.90;;;;;;5014267;28;19909;-68
2022/01/15 12:27:33;;;;;;;;;;;4.60;89.00;;;;;;5014716;28;19924;-67
2022/01/15 12:30:02;;;;;;;;;;;4.60;88.80;;;;;;5023029;28;20147;-68
2022/01/15 12:32:29;;;;;;;;;;;4.70;88.50;;;;;;5021969;28;19909;-68
2022/01/15 12:34:56;;;;;;;;;;;4.70;88.20;;;;;;5007455;28;20160;-68
2022/01/15 12:37:22;;;;;;;;;;;4.70;88.10;;;;;;5022424;28;19948;-69
2022/01/15 12:39:48;;;;;;;;;;;4.70;89.00;;;;;;5022079;28;19917;-69
2022/01/15 12:42:17;;;;;;;;;;;4.80;88.30;;;;;;5022554;28;19910;-69
2022/01/15 12:44:51;;;;;;;;;;;4.80;88.50;;;;;;5022444;28;19909;-68
2022/01/15 12:47:17;;;;;;;;;;;4.70;88.10;;;;;;5022161;28;19917;-69
2022/01/15 12:49:51;;;;;;;;;;;4.60;89.30;;;;;;5022522;28;19976;-68
2022/01/15 12:52:20;;;;;;;;;;;4.60;89.70;;;;;;5022238;28;20144;-68
2022/01/15 12:54:47;;;;;;;;;;;4.70;89.80;;;;;;5021672;28;19909;-69
2022/01/15 12:57:13;;;;;;;;;;;4.80;88.50;;;;;;5022241;28;20235;-68
2022/01/15 12:59:39;;;;;;;;;;;4.90;88.00;;;;;;5021464;28;19909;-69
2022/01/15 13:02:05;;;;;;;;;;;4.90;87.60;;;;;;5022386;28;19909;-68
2022/01/15 13:04:31;;;;;;;;;;;4.90;88.10;;;;;;5020818;28;19909;-69
2022/01/15 13:06:58;;;;;;;;;;;4.90;88.40;;;;;;5016984;28;19948;-68
2022/01/15 13:09:38;;;;;;;;;;;4.90;86.30;;;;;;5002624;28;20001;-69
2022/01/15 13:12:04;;;;;;;;;;;4.90;87.30;;;;;;5010904;28;19941;-69
2022/01/15 13:14:37;;;;;;;;;;;5.00;86.30;;;;;;5021843;28;19910;-69
2022/01/15 13:17:03;;;;;;;;;;;5.20;85.80;;;;;;5022746;28;19914;-68
2022/01/15 13:19:37;;;;;;;;;;;5.20;85.00;;;;;;5023078;28;19918;-69
2022/01/15 13:22:03;;;;;;;;;;;5.20;85.70;;;;;;5023406;28;19910;-69
2022/01/15 13:24:28;;;;;;;;;;;5.10;85.50;;;;;;5022454;28;19909;-69
2022/01/15 13:26:57;;;;;;;;;;;5.20;84.80;;;;;;5022308;28;19952;-69
2022/01/15 13:29:23;;;;;;;;;;;5.30;84.80;;;;;;5005288;28;19910;-69
2022/01/15 13:31:50;;;;;;;;;;;5.30;83.90;;;;;;5005489;28;19956;-69
2022/01/15 13:34:16;;;;;;;;;;;5.40;83.20;;;;;;5023066;28;19980;-69
2022/01/15 13:36:43;;;;;;;;;;;5.40;83.80;;;;;;5023069;28;19921;-69
2022/01/15 13:39:10;;;;;;;;;;;5.40;82.80;;;;;;5022696;28;19909;-69
2022/01/15 13:41:37;;;;;;;;;;;5.60;81.90;;;;;;5023015;28;20200;-69
2022/01/15 13:44:05;;;;;;;;;;;5.60;81.60;;;;;;5021683;28;20223;-69
2022/01/15 13:46:34;;;;;;;;;;;5.60;81.30;;;;;;5022853;28;19913;-69
2022/01/15 13:49:04;;;;;;;;;;;5.60;80.20;;;;;;5022662;28;20212;-69
2022/01/15 13:54:17;;;;;;;;;;;5.20;82.40;;;;;;5015859;28;19916;-69
2022/01/15 13:56:44;;;;;;;;;;;5.30;82.60;;;;;;5011164;28;20351;-69
2022/01/15 13:59:12;;;;;;;;;;;5.30;81.70;;;;;;5014000;28;19910;-70
2022/01/15 14:01:48;;;;;;;;;;;5.20;82.70;;;;;;5022878;28;20196;-69
2022/01/15 14:04:31;;;;;;;;;;;5.10;83.80;;;;;;5022565;28;20209;-70
2022/01/15 14:06:58;;;;;;;;;;;5.10;83.00;;;;;;5021450;28;20123;-70
2022/01/15 14:09:24;;;;;;;;;;;5.10;82.90;;;;;;5023000;28;20016;-70
2022/01/15 14:12:01;;;;;;;;;;;4.90;83.70;;;;;;5017647;28;19913;-70
2022/01/15 14:14:32;;;;;;;;;;;4.90;83.60;;;;;;5003077;28;19910;-70
2022/01/15 14:16:59;;;;;;;;;;;4.80;83.90;;;;;;5003077;28;19918;-70
2022/01/15 14:22:22;;;;;;;;;;;4.60;84.60;;;;;;5012930;28;20322;-70
2022/01/15 14:24:51;;;;;;;;;;;4.70;84.60;;;;;;5000915;28;20317;-76
2022/01/15 14:27:19;;;;;;;;;;;4.70;84.80;;;;;;5005262;28;20231;-74
2022/01/15 14:29:44;;;;;;;;;;;4.70;84.80;;;;;;5022085;28;19976;-73
2022/01/15 14:32:10;;;;;;;;;;;4.60;85.40;;;;;;5022803;28;20097;-73
2022/01/15 14:34:36;;;;;;;;;;;4.60;85.70;;;;;;5020412;28;19909;-74
2022/01/15 14:37:01;;;;;;;;;;;4.60;86.10;;;;;;5021150;28;19913;-74
2022/01/15 14:39:27;;;;;;;;;;;4.60;86.50;;;;;;5017208;28;19917;-73
2022/01/15 14:41:53;;;;;;;;;;;4.70;86.60;;;;;;5002771;28;19916;-72
2022/01/15 14:44:18;;;;;;;;;;;4.80;86.00;;;;;;5009541;28;19916;-73
2022/01/15 14:46:44;;;;;;;;;;;4.80;85.30;;;;;;5004935;28;19948;-74
2022/01/15 14:49:10;;;;;;;;;;;4.80;85.80;;;;;;5020991;28;19909;-74
2022/01/15 14:51:36;;;;;;;;;;;4.70;86.10;;;;;;5025218;28;19921;-74
2022/01/15 14:54:02;;;;;;;;;;;4.80;85.10;;;;;;5025881;28;19916;-76
2022/01/15 14:56:27;;;;;;;;;;;4.60;85.70;;;;;;5019211;28;19913;-68
2022/01/15 14:58:53;;;;;;;;;;;4.50;86.60;;;;;;5009524;28;19910;-73
2022/01/15 15:01:19;;;;;;;;;;;4.40;87.10;;;;;;5020357;28;19909;-70
2022/01/15 15:03:45;;;;;;;;;;;4.20;87.80;;;;;;5024351;28;19916;-71
2022/01/15 15:06:11;;;;;;;;;;;4.10;88.50;;;;;;5023993;28;19985;-71
2022/01/15 15:08:37;;;;;;;;;;;3.90;88.90;;;;;;5007421;28;20007;-71